Time;durP1;ratioP1;P1;durP2;ratioP2;P2;SDS_P1;SDS_P2;PMS_P1;PMS_P2;Temp;Humidity;BMP_temperature;BMP_pressure;BME280_temperature;BME280_humidity;BME280_pressure;Samples;Min_cycle;Max_cycle;Signal;HPM_P1;HPM_P2
2024/04/09 00:01:51;;;;;;;;;;;;;;;19.61;64.36;100236.53;4352323;27;19939;-71
2024/04/09 00:03:55;;;;;;;;;;;;;;;19.59;64.59;100234.06;4352052;27;19979;-70
2024/04/09 00:05:58;;;;;;;;;;;;;;;19.59;64.40;100241.41;4354250;27;19931;-71
2024/04/09 00:08:03;;;;;;;;;;;;;;;19.58;65.04;100239.78;4363623;27;20060;-71
2024/04/09 00:10:06;;;;;;;;;;;;;;;19.58;65.32;100237.03;4350460;27;19931;-71
2024/04/09 00:12:12;;;;;;;;;;;;;;;19.56;64.86;100229.06;4352595;27;19944;-70
2024/04/09 00:14:14;;;;;;;;;;;;;;;19.55;64.97;100224.66;4378832;27;19943;-70
2024/04/09 00:16:15;;;;;;;;;;;;;;;19.53;65.92;100234.19;4352109;27;20348;-70
2024/04/09 00:18:18;;;;;;;;;;;;;;;19.50;65.79;100237.44;4351708;27;19931;-70
2024/04/09 00:20:19;;;;;;;;;;;;;;;19.47;66.00;100232.44;4352045;27;19931;-71
2024/04/09 00:22:27;;;;;;;;;;;;;;;19.45;65.16;100241.75;4350953;27;19940;-70
2024/04/09 00:24:31;;;;;;;;;;;;;;;19.44;65.22;100240.09;4352055;27;19966;-70
2024/04/09 00:26:35;;;;;;;;;;;;;;;19.44;65.27;100239.28;4353289;27;19932;-70
2024/04/09 00:28:39;;;;;;;;;;;;;;;19.43;65.90;100243.91;4352701;27;19938;-70
2024/04/09 00:30:44;;;;;;;;;;;;;;;19.41;66.30;100237.84;4350975;27;19931;-70
2024/04/09 00:32:46;;;;;;;;;;;;;;;19.38;66.59;100241.06;4352418;27;19932;-70
2024/04/09 00:34:50;;;;;;;;;;;;;;;19.33;67.13;100238.25;4351531;27;19935;-70
2024/04/09 00:36:51;;;;;;;;;;;;;;;19.30;67.31;100240.69;4378124;27;19934;-70
2024/04/09 00:38:56;;;;;;;;;;;;;;;19.26;67.52;100237.56;4350540;27;19932;-70
2024/04/09 00:40:57;;;;;;;;;;;;;;;19.20;67.98;100242.16;4350864;27;19931;-70
2024/04/09 00:42:59;;;;;;;;;;;;;;;19.18;68.09;100235.25;4350356;27;19998;-70
2024/04/09 00:45:06;;;;;;;;;;;;;;;19.13;68.06;100235.16;4352185;27;19938;-70
2024/04/09 00:47:08;;;;;;;;;;;;;;;19.08;68.61;100235.91;4352751;27;19938;-70
2024/04/09 00:49:13;;;;;;;;;;;;;;;19.03;68.57;100233.91;4350888;27;19931;-70
2024/04/09 00:51:16;;;;;;;;;;;;;;;19.01;69.06;100233.31;4350712;27;20410;-69
2024/04/09 00:53:19;;;;;;;;;;;;;;;18.98;69.33;100239.28;4350632;27;19931;-70
2024/04/09 00:55:25;;;;;;;;;;;;;;;18.95;69.22;100238.94;4350378;27;20619;-70
2024/04/09 00:57:28;;;;;;;;;;;;;;;18.89;69.48;100232.56;4352062;27;19943;-70
2024/04/09 00:59:29;;;;;;;;;;;;;;;18.86;69.30;100238.50;4362707;27;19931;-70
2024/04/09 01:01:36;;;;;;;;;;;;;;;18.81;69.38;100228.25;4350212;27;19938;-70
2024/04/09 01:03:37;;;;;;;;;;;;;;;18.78;69.63;100230.63;4350314;27;19943;-70
2024/04/09 01:05:41;;;;;;;;;;;;;;;18.75;70.23;100233.88;4349916;27;19983;-70
2024/04/09 01:07:42;;;;;;;;;;;;;;;18.70;70.06;100229.97;4350153;27;20498;-70
2024/04/09 01:09:46;;;;;;;;;;;;;;;18.65;70.32;100234.50;4350303;27;19938;-70
2024/04/09 01:11:47;;;;;;;;;;;;;;;18.60;70.02;100235.22;4350952;27;20005;-70
2024/04/09 01:13:50;;;;;;;;;;;;;;;18.59;70.23;100232.72;4378321;27;19931;-70
2024/04/09 01:15:51;;;;;;;;;;;;;;;18.55;70.41;100226.91;4349505;27;20028;-70
2024/04/09 01:17:58;;;;;;;;;;;;;;;18.52;70.89;100235.59;4349931;27;19931;-70
2024/04/09 01:19:59;;;;;;;;;;;;;;;18.50;70.52;100226.81;4350717;27;19942;-70
2024/04/09 01:22:04;;;;;;;;;;;;;;;18.47;70.94;100235.50;4350490;27;19932;-70
2024/04/09 01:24:08;;;;;;;;;;;;;;;18.43;70.94;100228.84;4351385;27;19931;-70
2024/04/09 01:26:14;;;;;;;;;;;;;;;18.39;70.76;100230.44;4353333;27;20001;-70
2024/04/09 01:28:15;;;;;;;;;;;;;;;18.35;71.19;100228.19;4351349;27;20266;-70
2024/04/09 01:30:19;;;;;;;;;;;;;;;18.32;70.84;100225.91;4350417;27;19943;-70
2024/04/09 01:32:21;;;;;;;;;;;;;;;18.30;71.35;100228.03;4351436;27;21074;-70
2024/04/09 01:34:24;;;;;;;;;;;;;;;18.28;71.47;100227.47;4362507;27;19932;-70
2024/04/09 01:36:27;;;;;;;;;;;;;;;18.27;71.63;100236.72;4350466;27;19935;-70
2024/04/09 01:38:31;;;;;;;;;;;;;;;18.24;71.53;100222.72;4352767;27;20200;-70
2024/04/09 01:40:35;;;;;;;;;;;;;;;18.22;71.70;100228.44;4350976;27;20001;-70
2024/04/09 01:42:36;;;;;;;;;;;;;;;18.18;72.21;100229.97;4348297;27;20315;-70
2024/04/09 01:44:39;;;;;;;;;;;;;;;18.16;72.26;100232.13;4348074;27;19932;-70
2024/04/09 01:46:40;;;;;;;;;;;;;;;18.13;71.92;100225.22;4349714;27;20277;-70
2024/04/09 01:48:45;;;;;;;;;;;;;;;18.11;72.18;100226.53;4350112;27;19943;-70
2024/04/09 01:50:46;;;;;;;;;;;;;;;18.09;72.61;100229.53;4348491;27;20380;-70
2024/04/09 01:52:49;;;;;;;;;;;;;;;18.06;72.57;100226.44;4350572;27;19931;-70
2024/04/09 01:54:50;;;;;;;;;;;;;;;18.05;72.38;100222.84;4362776;27;19942;-70
2024/04/09 01:56:56;;;;;;;;;;;;;;;18.01;72.91;100222.50;4351288;27;19931;-70
2024/04/09 01:58:57;;;;;;;;;;;;;;;17.99;72.98;100223.81;4380106;26;19971;-70
2024/04/09 02:01:06;;;;;;;;;;;;;;;17.98;72.83;100222.16;4348484;27;19931;-70
2024/04/09 02:03:07;;;;;;;;;;;;;;;17.96;72.75;100219.69;4350200;27;20019;-70
2024/04/09 02:05:12;;;;;;;;;;;;;;;17.94;72.68;100227.25;4350391;27;19939;-70
2024/04/09 02:07:13;;;;;;;;;;;;;;;17.92;72.93;100229.41;4349235;27;19943;-70
2024/04/09 02:09:18;;;;;;;;;;;;;;;17.90;73.09;100228.81;4348990;27;19932;-70
2024/04/09 02:11:22;;;;;;;;;;;;;;;17.90;72.97;100225.25;4349767;27;19937;-70
2024/04/09 02:13:29;;;;;;;;;;;;;;;17.87;73.32;100223.81;4351842;27;19931;-70
2024/04/09 02:15:30;;;;;;;;;;;;;;;17.87;73.59;100228.41;4349064;27;19931;-70
2024/04/09 02:17:34;;;;;;;;;;;;;;;17.86;73.71;100221.31;4348076;27;19943;-70
2024/04/09 02:19:37;;;;;;;;;;;;;;;17.83;73.82;100223.44;4350374;27;20005;-70
2024/04/09 02:21:42;;;;;;;;;;;;;;;17.82;73.63;100219.06;4349831;27;19938;-70
2024/04/09 02:23:43;;;;;;;;;;;;;;;17.80;73.93;100217.63;4350102;27;19937;-70
2024/04/09 02:25:46;;;;;;;;;;;;;;;17.79;74.15;100219.53;4349968;27;20276;-70
2024/04/09 02:27:47;;;;;;;;;;;;;;;17.81;73.78;100219.28;4351743;27;19938;-70
2024/04/09 02:29:54;;;;;;;;;;;;;;;17.78;73.85;100214.31;4351842;27;20002;-71
2024/04/09 02:31:55;;;;;;;;;;;;;;;17.77;73.84;100223.56;4352125;27;19931;-70
2024/04/09 02:33:59;;;;;;;;;;;;;;;17.75;73.85;100212.03;4351072;27;20494;-70
2024/04/09 02:36:01;;;;;;;;;;;;;;;17.74;74.23;100215.84;4351193;27;19932;-70
2024/04/09 02:38:05;;;;;;;;;;;;;;;17.73;74.26;100212.28;4352245;27;19931;-70
2024/04/09 02:40:11;;;;;;;;;;;;;;;17.73;74.39;100219.66;4349979;27;19938;-70
2024/04/09 02:42:15;;;;;;;;;;;;;;;17.70;74.78;100220.94;4349854;27;19931;-70
2024/04/09 02:44:16;;;;;;;;;;;;;;;17.70;74.82;100223.69;4351027;27;20370;-70
2024/04/09 02:46:23;;;;;;;;;;;;;;;17.67;74.92;100221.41;4348342;27;19943;-70
2024/04/09 02:48:24;;;;;;;;;;;;;;;17.67;75.13;100221.41;4351822;27;19931;-70
2024/04/09 02:50:28;;;;;;;;;;;;;;;17.67;75.15;100215.13;4349108;27;19938;-70
2024/04/09 02:52:29;;;;;;;;;;;;;;;17.67;75.01;100215.97;4349507;27;19931;-70
2024/04/09 02:54:33;;;;;;;;;;;;;;;17.67;74.68;100215.13;4351424;27;19939;-70
2024/04/09 02:56:34;;;;;;;;;;;;;;;17.65;74.89;100218.94;4353745;27;19938;-70
2024/04/09 02:58:39;;;;;;;;;;;;;;;17.64;74.80;100221.88;4354840;27;19938;-69
2024/04/09 03:00:42;;;;;;;;;;;;;;;17.63;74.79;100212.88;4351788;27;19939;-69
2024/04/09 03:02:50;;;;;;;;;;;;;;;17.61;75.19;100209.53;4353676;27;19942;-69
2024/04/09 03:04:51;;;;;;;;;;;;;;;17.60;75.20;100212.50;4364691;27;19938;-69
2024/04/09 03:06:55;;;;;;;;;;;;;;;17.59;75.27;100216.31;4352376;27;19931;-70
2024/04/09 03:08:56;;;;;;;;;;;;;;;17.57;75.49;100215.69;4378486;27;19931;-70
2024/04/09 03:11:01;;;;;;;;;;;;;;;17.54;75.33;100214.28;4354208;27;20038;-70
2024/04/09 03:13:02;;;;;;;;;;;;;;;17.55;75.43;100217.84;4352978;27;20372;-70
2024/04/09 03:15:07;;;;;;;;;;;;;;;17.53;75.52;100218.09;4351412;27;20298;-70
2024/04/09 03:17:08;;;;;;;;;;;;;;;17.52;75.89;100221.88;4351296;27;20342;-70
2024/04/09 03:19:14;;;;;;;;;;;;;;;17.49;75.59;100219.59;4353764;27;20366;-70
2024/04/09 03:21:15;;;;;;;;;;;;;;;17.47;75.64;100217.13;4353137;27;19939;-70
2024/04/09 03:23:18;;;;;;;;;;;;;;;17.45;75.90;100211.06;4351493;27;19931;-70
2024/04/09 03:25:20;;;;;;;;;;;;;;;17.45;75.64;100210.25;4354251;27;19944;-70
2024/04/09 03:27:23;;;;;;;;;;;;;;;17.43;75.80;100209.66;4351885;27;19931;-70
2024/04/09 03:29:24;;;;;;;;;;;;;;;17.41;76.03;100201.72;4352344;27;19935;-70
2024/04/09 03:31:28;;;;;;;;;;;;;;;17.40;76.04;100207.41;4351568;27;19946;-70
2024/04/09 03:33:29;;;;;;;;;;;;;;;17.39;76.29;100212.00;4351514;27;20478;-70
2024/04/09 03:35:35;;;;;;;;;;;;;;;17.39;76.00;100208.44;4348481;27;19938;-69
2024/04/09 03:37:39;;;;;;;;;;;;;;;17.38;75.97;100204.91;4352226;27;19939;-69
2024/04/09 03:39:42;;;;;;;;;;;;;;;17.38;75.93;100210.38;4353739;27;20389;-69
2024/04/09 03:41:44;;;;;;;;;;;;;;;17.37;76.01;100208.69;4350936;27;19942;-70
2024/04/09 03:43:51;;;;;;;;;;;;;;;17.37;76.13;100196.94;4352844;27;19950;-70
2024/04/09 03:46:01;;;;;;;;;;;;;;;17.36;76.47;100203.47;4351847;27;19931;-69
2024/04/09 03:48:05;;;;;;;;;;;;;;;17.36;76.38;100200.75;4351322;27;19939;-69
2024/04/09 03:50:06;;;;;;;;;;;;;;;17.36;76.32;100204.28;4351674;27;19943;-69
2024/04/09 03:52:13;;;;;;;;;;;;;;;17.35;76.34;100196.34;4350603;27;19932;-69
2024/04/09 03:54:14;;;;;;;;;;;;;;;17.34;76.24;100190.06;4352107;27;19942;-69
2024/04/09 03:56:18;;;;;;;;;;;;;;;17.33;76.50;100193.84;4352885;27;20368;-69
2024/04/09 03:58:19;;;;;;;;;;;;;;;17.33;76.60;100193.03;4353698;27;19938;-69
2024/04/09 04:00:22;;;;;;;;;;;;;;;17.32;76.93;100189.47;4350593;27;19978;-69
2024/04/09 04:02:23;;;;;;;;;;;;;;;17.33;76.40;100185.66;4352035;27;19932;-70
2024/04/09 04:04:27;;;;;;;;;;;;;;;17.33;76.52;100187.56;4351095;27;20001;-69
2024/04/09 04:06:28;;;;;;;;;;;;;;;17.31;76.77;100179.59;4362027;27;19931;-69
2024/04/09 04:08:34;;;;;;;;;;;;;;;17.31;76.71;100182.34;4350598;27;19931;-69
2024/04/09 04:10:36;;;;;;;;;;;;;;;17.31;76.92;100178.78;4351280;27;19931;-69
2024/04/09 04:12:40;;;;;;;;;;;;;;;17.31;76.73;100189.69;4351648;27;19944;-69
2024/04/09 04:14:41;;;;;;;;;;;;;;;17.28;76.79;100186.34;4350895;27;19931;-69
2024/04/09 04:16:45;;;;;;;;;;;;;;;17.28;76.94;100183.63;4377843;27;19931;-70
2024/04/09 04:18:47;;;;;;;;;;;;;;;17.28;77.08;100185.53;4351999;27;19931;-69
2024/04/09 04:20:53;;;;;;;;;;;;;;;17.28;77.10;100191.00;4351393;27;20338;-69
2024/04/09 04:22:55;;;;;;;;;;;;;;;17.27;76.96;100184.72;4351573;27;19932;-69
2024/04/09 04:25:01;;;;;;;;;;;;;;;17.27;77.34;100183.84;4350624;27;20011;-70
2024/04/09 04:27:02;;;;;;;;;;;;;;;17.26;76.94;100184.94;4351781;27;19938;-69
2024/04/09 04:29:08;;;;;;;;;;;;;;;17.25;76.94;100178.63;4351808;27;19935;-70
2024/04/09 04:31:10;;;;;;;;;;;;;;;17.25;77.01;100180.53;4351363;27;20446;-69
2024/04/09 04:33:13;;;;;;;;;;;;;;;17.24;77.28;100178.88;4351730;27;19935;-70
2024/04/09 04:35:15;;;;;;;;;;;;;;;17.24;77.07;100176.13;4351356;27;19932;-69
2024/04/09 04:37:18;;;;;;;;;;;;;;;17.23;77.21;100178.06;4353996;27;20492;-70
2024/04/09 04:39:19;;;;;;;;;;;;;;;17.22;77.44;100173.66;4350830;27;20024;-70
2024/04/09 04:41:26;;;;;;;;;;;;;;;17.23;77.64;100179.97;4350855;27;19943;-70
2024/04/09 04:43:27;;;;;;;;;;;;;;;17.23;77.46;100172.59;4351239;27;19932;-70
2024/04/09 04:45:31;;;;;;;;;;;;;;;17.24;77.84;100177.00;4350342;27;19979;-73
2024/04/09 04:47:33;;;;;;;;;;;;;;;17.25;77.86;100175.09;4350146;27;20286;-69
2024/04/09 04:49:36;;;;;;;;;;;;;;;17.27;78.09;100167.47;4350781;27;19938;-69
2024/04/09 04:51:37;;;;;;;;;;;;;;;17.28;78.21;100167.25;4350987;27;20409;-70
2024/04/09 04:53:41;;;;;;;;;;;;;;;17.31;77.81;100165.97;4350365;27;19935;-69
2024/04/09 04:55:42;;;;;;;;;;;;;;;17.33;78.13;100173.91;4350984;27;20027;-69
2024/04/09 04:57:48;;;;;;;;;;;;;;;17.34;78.00;100164.66;4352782;27;19939;-69
2024/04/09 04:59:49;;;;;;;;;;;;;;;17.35;78.27;100171.78;4351144;27;20413;-69
2024/04/09 05:01:53;;;;;;;;;;;;;;;17.36;78.43;100165.25;4350069;27;19931;-69
2024/04/09 05:03:54;;;;;;;;;;;;;;;17.37;78.14;100172.38;4352577;27;19938;-69
2024/04/09 05:05:58;;;;;;;;;;;;;;;17.38;78.58;100165.84;4350615;27;20453;-69
2024/04/09 05:07:59;;;;;;;;;;;;;;;17.40;78.67;100166.44;4351516;27;19949;-69
2024/04/09 05:10:04;;;;;;;;;;;;;;;17.40;78.73;100167.28;4351640;27;19931;-69
2024/04/09 05:12:05;;;;;;;;;;;;;;;17.40;78.73;100161.81;4350707;27;19939;-69
2024/04/09 05:14:11;;;;;;;;;;;;;;;17.42;79.00;100169.78;4361037;27;20385;-69
2024/04/09 05:16:12;;;;;;;;;;;;;;;17.43;78.71;100158.63;4351030;27;19939;-69
2024/04/09 05:18:16;;;;;;;;;;;;;;;17.44;79.02;100159.44;4373228;27;19986;-69
2024/04/09 05:20:18;;;;;;;;;;;;;;;17.46;78.96;100163.59;4352188;27;19931;-69
2024/04/09 05:22:24;;;;;;;;;;;;;;;17.48;79.18;100160.63;4350698;27;19960;-69
2024/04/09 05:24:25;;;;;;;;;;;;;;;17.48;79.32;100158.72;4349489;27;19939;-69
2024/04/09 05:26:29;;;;;;;;;;;;;;;17.49;78.98;100165.00;4349014;27;20269;-69
2024/04/09 05:28:30;;;;;;;;;;;;;;;17.50;79.11;100161.22;4351742;27;20277;-69
2024/04/09 05:30:36;;;;;;;;;;;;;;;17.52;79.41;100158.25;4348415;27;19938;-69
2024/04/09 05:32:39;;;;;;;;;;;;;;;17.53;79.22;100160.75;4350557;27;19939;-69
2024/04/09 05:34:43;;;;;;;;;;;;;;;17.55;79.25;100157.78;4351060;27;19931;-69
2024/04/09 05:36:44;;;;;;;;;;;;;;;17.57;79.49;100164.69;4351315;27;20443;-69
2024/04/09 05:38:48;;;;;;;;;;;;;;;17.58;79.47;100154.56;4351333;27;20002;-69
2024/04/09 05:40:54;;;;;;;;;;;;;;;17.61;79.53;100162.28;4351592;27;19938;-69
2024/04/09 05:42:58;;;;;;;;;;;;;;;17.63;79.79;100160.16;4351854;27;20374;-69
2024/04/09 05:44:59;;;;;;;;;;;;;;;17.66;79.90;100156.94;4352550;27;19947;-69
2024/04/09 05:47:05;;;;;;;;;;;;;;;17.69;80.00;100159.19;4350729;27;20006;-69
2024/04/09 05:49:07;;;;;;;;;;;;;;;17.71;80.11;100158.97;4351546;27;19935;-69
2024/04/09 05:51:11;;;;;;;;;;;;;;;17.72;80.31;100164.19;4350582;27;19939;-69
2024/04/09 05:53:12;;;;;;;;;;;;;;;17.74;80.32;100163.94;4351413;27;19938;-69
2024/04/09 05:55:16;;;;;;;;;;;;;;;17.77;80.53;100168.94;4351290;27;19936;-69
2024/04/09 05:57:16;;;;;;;;;;;;;;;17.79;80.39;100173.09;4352081;27;20738;-69
2024/04/09 05:59:20;;;;;;;;;;;;;;;17.83;80.49;100173.44;4349794;27;20658;-69
2024/04/09 06:01:21;;;;;;;;;;;;;;;17.86;80.27;100162.03;4351150;27;19931;-69
2024/04/09 06:03:28;;;;;;;;;;;;;;;17.89;80.58;100167.06;4350636;27;20018;-69
2024/04/09 14:58:30;;;;;;;;;;;;;;;22.82;56.97;100304.38;4382147;27;19930;-70
2024/04/09 15:00:31;;;;;;;;;;;;;;;22.82;56.65;100309.03;4384860;26;19930;-70
2024/04/09 15:02:35;;;;;;;;;;;;;;;22.81;56.86;100304.66;4383741;27;20001;-72
2024/04/09 15:04:36;;;;;;;;;;;;;;;22.79;56.67;100328.84;4379793;27;20372;-68
2024/04/09 15:06:40;;;;;;;;;;;;;;;22.79;57.26;100323.34;4334281;27;19932;-68
2024/04/09 15:08:41;;;;;;;;;;;;;;;22.77;57.22;100309.03;4332460;27;20675;-69
2024/04/09 15:10:43;;;;;;;;;;;;;;;22.72;57.60;100300.75;4362852;27;19931;-68
2024/04/09 15:12:47;;;;;;;;;;;;;;;22.75;57.69;100298.28;4363249;27;19931;-68
2024/04/09 15:14:52;;;;;;;;;;;;;;;22.75;57.47;100309.28;4364035;27;19935;-68
2024/04/09 15:16:57;;;;;;;;;;;;;;;22.74;57.43;100332.41;4357933;27;19931;-67
2024/04/09 15:18:58;;;;;;;;;;;;;;;22.73;57.71;100333.50;4364440;27;19931;-68
2024/04/09 15:21:02;;;;;;;;;;;;;;;22.72;57.60;100339.28;4363934;27;20362;-66
2024/04/09 15:23:03;;;;;;;;;;;;;;;22.71;57.55;100354.97;4364192;27;19938;-66
2024/04/09 15:25:11;;;;;;;;;;;;;;;22.71;57.12;100366.00;4362028;27;19946;-69
2024/04/09 15:27:12;;;;;;;;;;;;;;;22.70;56.78;100388.28;4362393;27;20369;-68
2024/04/09 15:29:16;;;;;;;;;;;;;;;22.67;57.00;100392.38;4360621;27;20002;-69
2024/04/09 15:31:20;;;;;;;;;;;;;;;22.66;56.76;100398.97;4361793;27;19970;-68
2024/04/09 15:33:24;;;;;;;;;;;;;;;22.64;56.72;100403.94;4359991;27;19931;-70
2024/04/09 15:35:25;;;;;;;;;;;;;;;22.62;56.52;100408.88;4362418;27;19931;-68
2024/04/09 15:37:29;;;;;;;;;;;;;;;22.60;56.89;100408.28;4363839;27;19956;-68
2024/04/09 15:39:33;;;;;;;;;;;;;;;22.57;56.54;100412.44;4360135;27;20506;-69
2024/04/09 15:41:37;;;;;;;;;;;;;;;22.57;57.14;100417.06;4361613;27;19978;-68
2024/04/09 15:43:38;;;;;;;;;;;;;;;22.57;56.72;100430.84;4363428;27;20013;-69
2024/04/09 15:45:42;;;;;;;;;;;;;;;22.54;56.34;100445.97;4362517;27;19931;-69
2024/04/09 15:47:46;;;;;;;;;;;;;;;22.51;56.66;100457.50;4362787;27;19939;-68
2024/04/09 15:49:50;;;;;;;;;;;;;;;22.50;56.87;100459.41;4362668;27;19931;-68
2024/04/09 15:51:53;;;;;;;;;;;;;;;22.49;56.63;100462.44;4363415;27;19939;-67
2024/04/09 15:53:59;;;;;;;;;;;;;;;22.48;56.91;100460.78;4363480;27;20468;-68
2024/04/09 15:56:00;;;;;;;;;;;;;;;22.46;56.69;100451.94;4333735;27;19932;-68
2024/04/09 15:58:05;;;;;;;;;;;;;;;22.43;56.60;100468.97;4332265;27;19935;-69
2024/04/09 16:00:11;;;;;;;;;;;;;;;22.41;56.33;100468.44;4362597;27;19940;-68
2024/04/09 16:02:18;;;;;;;;;;;;;;;22.40;56.49;100486.00;4363639;27;19931;-68
2024/04/09 16:04:23;;;;;;;;;;;;;;;22.37;56.48;100486.56;4366076;27;19938;-68
2024/04/09 16:06:29;;;;;;;;;;;;;;;22.35;56.45;100508.84;4366033;27;20396;-69
2024/04/09 16:08:33;;;;;;;;;;;;;;;22.32;56.22;100520.38;4336959;27;19989;-69
2024/04/09 16:10:37;;;;;;;;;;;;;;;22.29;56.44;100538.19;4336651;27;19939;-69
2024/04/09 16:12:38;;;;;;;;;;;;;;;22.28;56.82;100546.69;4367144;27;19945;-69
2024/04/09 16:14:44;;;;;;;;;;;;;;;22.25;56.50;100556.28;4365597;27;19935;-69
2024/04/09 16:16:49;;;;;;;;;;;;;;;22.23;56.65;100558.47;4365485;27;19938;-69
2024/04/09 16:18:52;;;;;;;;;;;;;;;22.21;56.22;100552.41;4366423;27;19958;-69
2024/04/09 16:21:03;;;;;;;;;;;;;;;22.20;56.50;100559.00;4366559;27;20277;-68
2024/04/09 16:23:06;;;;;;;;;;;;;;;22.18;56.52;100560.31;4367392;27;20001;-68
2024/04/09 16:25:07;;;;;;;;;;;;;;;22.16;56.41;100559.75;4365782;27;19931;-69
2024/04/09 16:27:11;;;;;;;;;;;;;;;22.14;55.57;100551.78;4365748;27;19931;-69
2024/04/09 16:29:12;;;;;;;;;;;;;;;22.11;55.51;100555.03;4364915;27;19931;-69
2024/04/09 16:31:17;;;;;;;;;;;;;;;22.09;55.41;100563.56;4299306;27;20044;-69
2024/04/09 16:33:19;;;;;;;;;;;;;;;22.08;54.91;100572.06;4362626;27;19940;-69
2024/04/09 16:35:24;;;;;;;;;;;;;;;22.04;54.93;100577.25;4333239;27;19944;-69
2024/04/09 16:37:28;;;;;;;;;;;;;;;22.00;54.83;100578.84;4363480;27;19931;-69
2024/04/09 16:39:31;;;;;;;;;;;;;;;21.98;54.92;100574.72;4365223;27;19967;-69
2024/04/09 16:41:33;;;;;;;;;;;;;;;21.95;55.56;100579.59;4362142;27;19932;-69
2024/04/09 16:43:39;;;;;;;;;;;;;;;21.94;55.99;100582.63;4333413;27;19932;-69
2024/04/09 16:45:40;;;;;;;;;;;;;;;21.91;55.59;100586.72;4365829;27;19931;-69
2024/04/09 16:47:44;;;;;;;;;;;;;;;21.88;56.24;100583.63;4326487;27;20030;-69
2024/04/09 16:49:46;;;;;;;;;;;;;;;21.86;56.17;100577.56;4363657;27;19931;-70
2024/04/09 16:51:50;;;;;;;;;;;;;;;21.84;56.12;100593.50;4329340;27;19939;-70
2024/04/09 16:53:55;;;;;;;;;;;;;;;21.82;56.35;100598.41;4363429;27;20013;-68
2024/04/09 16:56:01;;;;;;;;;;;;;;;21.80;56.44;100617.09;4365181;27;20343;-68
2024/04/09 16:58:02;;;;;;;;;;;;;;;21.76;55.97;100617.59;4363710;27;20263;-68
2024/04/09 17:00:07;;;;;;;;;;;;;;;21.74;55.87;100611.53;4363148;27;19931;-68
2024/04/09 17:02:11;;;;;;;;;;;;;;;21.73;56.02;100620.03;4364122;27;19931;-68
2024/04/09 17:04:15;;;;;;;;;;;;;;;21.69;55.71;100630.72;4362978;27;19954;-68
2024/04/09 17:06:16;;;;;;;;;;;;;;;21.67;55.86;100637.53;4364238;27;19935;-69
2024/04/09 17:08:20;;;;;;;;;;;;;;;21.65;55.80;100639.72;4365175;27;19946;-69
2024/04/09 17:10:24;;;;;;;;;;;;;;;21.62;56.27;100634.72;4361902;27;20017;-69
2024/04/09 17:12:27;;;;;;;;;;;;;;;21.58;56.01;100632.47;4365185;27;20018;-69
2024/04/09 17:14:29;;;;;;;;;;;;;;;21.57;56.31;100635.47;4362696;27;19938;-69
2024/04/09 17:16:33;;;;;;;;;;;;;;;21.54;56.28;100638.72;4364449;27;19964;-69
2024/04/09 17:18:34;;;;;;;;;;;;;;;21.50;56.12;100643.88;4365449;27;20368;-69
2024/04/09 17:20:37;;;;;;;;;;;;;;;21.47;56.68;100655.34;4359673;27;19931;-69
2024/04/09 17:22:39;;;;;;;;;;;;;;;21.45;56.61;100656.69;4364767;27;20000;-69
2024/04/09 17:24:44;;;;;;;;;;;;;;;21.43;56.85;100676.19;4365707;27;20471;-69
2024/04/09 17:26:47;;;;;;;;;;;;;;;21.40;57.46;100679.44;4365156;27;19931;-69
2024/04/09 17:28:51;;;;;;;;;;;;;;;21.38;57.45;100684.34;4364106;27;19938;-69
2024/04/09 17:30:52;;;;;;;;;;;;;;;21.34;58.08;100672.19;4365019;27;19931;-69
2024/04/09 17:32:56;;;;;;;;;;;;;;;21.29;57.64;100700.41;4364502;27;19964;-69
2024/04/09 17:34:57;;;;;;;;;;;;;;;21.26;56.94;100719.31;4363830;27;19939;-69
2024/04/09 17:37:01;;;;;;;;;;;;;;;21.18;55.83;100731.53;4350747;27;19990;-69
2024/04/09 17:39:02;;;;;;;;;;;;;;;21.10;54.68;100743.75;4365668;27;20377;-69
2024/04/09 17:41:05;;;;;;;;;;;;;;;21.03;54.03;100757.66;4363763;27;19943;-69
2024/04/09 17:43:09;;;;;;;;;;;;;;;20.94;53.45;100744.53;4334329;27;19979;-68
2024/04/09 17:45:13;;;;;;;;;;;;;;;20.83;52.31;100740.75;4365110;27;19939;-69
2024/04/09 17:47:16;;;;;;;;;;;;;;;20.72;50.94;100747.13;4364878;27;19947;-69
2024/04/09 17:49:20;;;;;;;;;;;;;;;20.63;50.59;100750.25;4361292;27;20001;-69
2024/04/09 17:51:21;;;;;;;;;;;;;;;20.56;49.93;100765.19;4325674;27;19954;-69
2024/04/09 17:53:25;;;;;;;;;;;;;;;20.45;49.16;100767.69;4360958;27;19938;-69
2024/04/09 17:55:26;;;;;;;;;;;;;;;20.34;48.78;100769.41;4363069;27;19931;-68
2024/04/09 17:57:32;;;;;;;;;;;;;;;20.25;48.76;100764.53;4364376;27;20384;-69
2024/04/09 17:59:36;;;;;;;;;;;;;;;20.16;49.88;100780.53;4366828;27;19946;-69
2024/04/09 18:01:40;;;;;;;;;;;;;;;20.06;48.73;100783.88;4366352;27;20321;-68
2024/04/09 18:03:41;;;;;;;;;;;;;;;19.97;49.07;100791.63;4364868;27;20444;-69
2024/04/09 18:05:48;;;;;;;;;;;;;;;19.90;48.35;100806.50;4366008;27;19998;-68
2024/04/09 18:07:49;;;;;;;;;;;;;;;19.83;48.02;100816.75;4366806;27;19931;-69
2024/04/09 18:09:53;;;;;;;;;;;;;;;19.73;48.49;100822.78;4364497;27;19938;-68
2024/04/09 18:11:55;;;;;;;;;;;;;;;19.65;48.65;100840.38;4364640;27;19931;-68
2024/04/09 18:13:58;;;;;;;;;;;;;;;19.57;48.94;100841.56;4365313;27;19931;-68
2024/04/09 18:16:05;;;;;;;;;;;;;;;19.50;48.91;100862.75;4364817;27;20452;-68
2024/04/09 18:18:08;;;;;;;;;;;;;;;19.43;49.18;100873.78;4335778;27;19939;-69
2024/04/09 18:20:12;;;;;;;;;;;;;;;19.35;48.77;100887.81;4334979;27;19932;-70
2024/04/09 18:22:16;;;;;;;;;;;;;;;19.32;48.71;100898.41;4363730;27;19938;-70
2024/04/09 18:24:17;;;;;;;;;;;;;;;19.26;48.38;100901.00;4364578;27;19938;-69
2024/04/09 18:26:22;;;;;;;;;;;;;;;19.22;48.97;100918.13;4362904;27;19949;-67
2024/04/09 18:28:26;;;;;;;;;;;;;;;19.16;49.13;100913.56;4364626;27;19967;-69
2024/04/09 18:30:30;;;;;;;;;;;;;;;19.11;48.64;100917.00;4363670;27;19974;-69
2024/04/09 18:32:37;;;;;;;;;;;;;;;19.05;48.36;100926.94;4326978;27;19932;-69
2024/04/09 18:34:41;;;;;;;;;;;;;;;19.00;48.06;100926.81;4361208;27;20009;-68
2024/04/09 18:36:42;;;;;;;;;;;;;;;18.96;48.26;100941.19;4360268;27;20295;-68
2024/04/09 18:38:48;;;;;;;;;;;;;;;18.89;47.85;100939.34;4364753;27;19938;-67
2024/04/09 18:40:58;;;;;;;;;;;;;;;18.85;47.93;100943.59;4364605;27;20327;-67
2024/04/09 18:43:02;;;;;;;;;;;;;;;18.79;48.10;100943.63;4361374;27;19935;-71
2024/04/09 18:45:06;;;;;;;;;;;;;;;18.71;48.10;100951.09;4363012;27;19931;-68
2024/04/09 18:47:10;;;;;;;;;;;;;;;18.66;48.21;100963.78;4358436;27;19931;-68
2024/04/09 18:49:13;;;;;;;;;;;;;;;18.60;48.05;100968.22;4358757;27;20373;-68
2024/04/09 18:51:17;;;;;;;;;;;;;;;18.53;47.76;100972.94;4361906;27;20004;-68
2024/04/09 18:53:18;;;;;;;;;;;;;;;18.48;48.24;100981.81;4362850;27;19931;-68
2024/04/09 18:55:22;;;;;;;;;;;;;;;18.42;48.16;100976.41;4362766;27;19938;-70
2024/04/09 18:57:23;;;;;;;;;;;;;;;18.39;48.36;100972.22;4363590;27;19947;-68
2024/04/09 18:59:27;;;;;;;;;;;;;;;18.33;48.45;100971.19;4333242;27;19932;-67
2024/04/09 19:01:28;;;;;;;;;;;;;;;18.29;48.45;100975.47;4348533;27;19932;-67
2024/04/09 19:03:33;;;;;;;;;;;;;;;18.25;48.41;100976.13;4361545;27;20001;-67
2024/04/09 19:05:39;;;;;;;;;;;;;;;18.20;48.35;100998.66;4347737;27;19931;-68
2024/04/09 19:07:43;;;;;;;;;;;;;;;18.17;48.18;101004.56;4363355;27;20319;-67
2024/04/09 19:09:44;;;;;;;;;;;;;;;18.13;48.57;101001.41;4364150;27;20005;-67
2024/04/09 19:11:48;;;;;;;;;;;;;;;18.12;48.46;101009.84;4361667;27;19931;-67
2024/04/09 19:13:52;;;;;;;;;;;;;;;18.07;48.52;101007.78;4362518;27;19938;-68
2024/04/09 19:15:59;;;;;;;;;;;;;;;18.04;49.07;101021.91;4360885;27;20365;-67
2024/04/09 19:18:01;;;;;;;;;;;;;;;18.03;48.71;101016.66;4361676;27;19937;-67
2024/04/09 19:20:05;;;;;;;;;;;;;;;17.99;49.17;101024.44;4362541;27;19963;-67
2024/04/09 19:22:09;;;;;;;;;;;;;;;17.94;48.89;101025.09;4363609;27;19931;-67
2024/04/09 19:24:13;;;;;;;;;;;;;;;17.91;49.35;101030.16;4363715;27;19931;-67
2024/04/09 19:26:16;;;;;;;;;;;;;;;17.86;49.20;101038.16;4362790;27;19935;-67